createdAt,value
2022-08-22T00:00:59.185Z,4.70
2022-08-22T00:02:42.866Z,4.30
2022-08-22T00:03:12.015Z,4.57
2022-08-22T00:03:45.959Z,5.05
2022-08-22T00:06:23.816Z,5.42
2022-08-22T00:09:16.940Z,4.60
2022-08-22T00:11:52.163Z,5.00
2022-08-22T00:14:32.464Z,4.93
2022-08-22T00:17:06.238Z,4.60
2022-08-22T00:22:17.913Z,4.67
2022-08-22T00:24:53.215Z,4.93
2022-08-22T00:27:26.720Z,5.10
2022-08-22T00:30:05.342Z,5.10
2022-08-22T00:32:42.823Z,5.10
2022-08-22T00:35:21.562Z,5.87
2022-08-22T00:38:02.127Z,5.47
2022-08-22T00:40:44.835Z,5.40
2022-08-22T00:43:48.357Z,5.40
2022-08-22T00:46:32.246Z,5.07
2022-08-22T00:49:17.179Z,5.30
2022-08-22T00:52:13.340Z,5.40
2022-08-22T00:54:58.337Z,5.03
2022-08-22T00:57:51.219Z,5.50
2022-08-22T01:00:22.751Z,5.40
2022-08-22T01:03:21.195Z,5.20
2022-08-22T01:06:06.669Z,5.50
2022-08-22T01:08:53.723Z,5.70
2022-08-22T01:11:42.492Z,5.63
2022-08-22T01:14:35.068Z,5.17
2022-08-22T01:17:44.692Z,5.23
2022-08-22T01:20:48.294Z,5.47
2022-08-22T01:23:53.363Z,5.90
2022-08-22T01:27:01.916Z,5.47
2022-08-22T01:30:01.428Z,5.77
2022-08-22T01:33:15.403Z,5.50
2022-08-22T01:36:26.251Z,5.77
2022-08-22T01:39:15.313Z,5.23
2022-08-22T01:42:15.234Z,4.90
2022-08-22T01:45:03.929Z,5.83
2022-08-22T01:47:38.779Z,5.90
2022-08-22T01:50:18.808Z,6.27
2022-08-22T01:52:51.822Z,6.07
2022-08-22T01:55:31.964Z,6.65
2022-08-22T01:58:04.021Z,6.20
2022-08-22T02:00:51.423Z,6.43
2022-08-22T02:03:30.034Z,6.93
2022-08-22T02:06:07.219Z,6.23
2022-08-22T02:08:44.496Z,6.23
2022-08-22T02:11:35.249Z,7.33
2022-08-22T02:14:18.289Z,7.10
2022-08-22T02:16:53.407Z,7.10
2022-08-22T02:19:37.354Z,7.10
2022-08-22T02:22:29.503Z,7.57
2022-08-22T02:25:09.056Z,7.00
2022-08-22T02:27:49.655Z,6.60
2022-08-22T02:30:21.849Z,7.53
2022-08-22T02:33:00.701Z,6.67
2022-08-22T02:35:37.152Z,7.40
2022-08-22T02:38:23.043Z,7.57
2022-08-22T02:41:06.769Z,7.60
2022-08-22T02:43:43.835Z,6.85
2022-08-22T02:46:22.619Z,7.13
2022-08-22T02:49:00.155Z,7.90
2022-08-22T02:51:36.638Z,6.70
2022-08-22T02:54:17.634Z,6.87
2022-08-22T02:56:52.594Z,7.23
2022-08-22T02:59:33.506Z,7.97
2022-08-22T03:02:35.496Z,7.97
2022-08-22T03:05:22.731Z,7.70
2022-08-22T03:08:02.245Z,7.73
2022-08-22T03:10:36.345Z,7.00
2022-08-22T03:13:11.917Z,7.50
2022-08-22T03:15:49.362Z,7.83
2022-08-22T03:18:25.034Z,7.63
2022-08-22T03:20:58.946Z,8.13
2022-08-22T03:23:45.962Z,7.80
2022-08-22T03:26:24.944Z,7.30
2022-08-22T03:29:00.397Z,7.20
2022-08-22T03:31:32.314Z,7.07
2022-08-22T03:34:20.916Z,7.60
2022-08-22T03:37:03.045Z,6.80
2022-08-22T03:39:49.968Z,6.63
2022-08-22T03:42:42.518Z,7.20
2022-08-22T03:45:37.965Z,7.20
2022-08-22T03:48:46.085Z,7.63
2022-08-22T03:51:31.103Z,6.63
2022-08-22T03:54:19.782Z,7.07
2022-08-22T03:57:32.513Z,7.00
2022-08-22T04:00:25.437Z,6.90
2022-08-22T04:03:20.894Z,7.40
2022-08-22T04:06:17.600Z,7.47
2022-08-22T04:09:21.382Z,6.63
2022-08-22T04:12:17.536Z,6.83
2022-08-22T04:15:22.506Z,8.03
2022-08-22T04:18:19.046Z,7.57
2022-08-22T04:21:17.938Z,6.83
2022-08-22T04:24:13.966Z,6.77
2022-08-22T04:26:50.644Z,7.07
2022-08-22T04:29:25.235Z,6.77
2022-08-22T04:32:10.590Z,6.93
2022-08-22T04:34:47.590Z,6.47
2022-08-22T04:37:22.270Z,6.50
2022-08-22T04:39:57.494Z,6.63
2022-08-22T04:42:33.532Z,7.67
2022-08-22T04:45:10.312Z,6.93
2022-08-22T04:47:42.796Z,6.50
2022-08-22T04:50:21.811Z,6.47
2022-08-22T04:53:17.447Z,7.43
2022-08-22T04:55:58.637Z,7.63
2022-08-22T04:58:39.606Z,7.03
2022-08-22T05:01:17.066Z,7.03
2022-08-22T05:03:52.913Z,6.90
2022-08-22T05:06:26.246Z,6.57
2022-08-22T05:08:59.571Z,7.30
2022-08-22T05:11:30.504Z,7.20
2022-08-22T05:14:04.065Z,6.83
2022-08-22T05:16:37.211Z,7.00
2022-08-22T05:19:16.943Z,6.90
2022-08-22T05:21:50.208Z,6.40
2022-08-22T05:24:28.017Z,6.93
2022-08-22T05:27:01.522Z,6.10
2022-08-22T05:29:32.642Z,6.92
2022-08-22T05:32:04.639Z,5.93
2022-08-22T05:34:38.601Z,5.50
2022-08-22T05:37:12.670Z,5.87
2022-08-22T05:39:46.614Z,4.93
2022-08-22T05:42:24.899Z,5.57
2022-08-22T05:44:55.868Z,5.73
2022-08-22T05:47:28.200Z,5.50
2022-08-22T05:50:01.599Z,5.40
2022-08-22T05:55:21.660Z,4.63
2022-08-22T05:58:10.419Z,5.50
2022-08-22T06:00:42.884Z,4.77
2022-08-22T06:03:19.039Z,5.43
2022-08-22T06:05:52.907Z,5.40
2022-08-22T06:08:27.346Z,4.87
2022-08-22T06:10:59.905Z,5.10
2022-08-22T06:13:34.611Z,5.17
2022-08-22T06:16:09.958Z,6.33
2022-08-22T06:18:42.152Z,5.70
2022-08-22T06:21:17.739Z,5.87
2022-08-22T06:23:52.667Z,5.10
2022-08-22T06:26:23.322Z,5.20
2022-08-22T06:28:56.733Z,5.25
2022-08-22T06:31:31.025Z,5.33
2022-08-22T06:34:05.434Z,5.03
2022-08-22T06:36:37.750Z,5.20
2022-08-22T06:39:18.508Z,5.30
2022-08-22T06:41:52.161Z,5.53
2022-08-22T06:46:55.152Z,5.03
2022-08-22T06:49:27.459Z,5.12
2022-08-22T06:52:01.578Z,5.07
2022-08-22T06:54:35.791Z,4.73
2022-08-22T06:57:06.733Z,4.73
2022-08-22T06:59:38.850Z,5.60
2022-08-22T07:02:18.846Z,4.57
2022-08-22T07:04:50.961Z,4.87
2022-08-22T07:07:24.030Z,5.13
2022-08-22T07:09:56.106Z,4.78
2022-08-22T07:12:31.248Z,5.03
2022-08-22T07:15:09.596Z,5.23
2022-08-22T07:17:49.625Z,5.13
2022-08-22T07:20:27.578Z,4.73
2022-08-22T07:22:59.276Z,4.83
2022-08-22T07:25:29.822Z,5.30
2022-08-22T07:28:15.866Z,5.27
2022-08-22T07:30:55.037Z,4.53
2022-08-22T07:33:38.532Z,4.60
2022-08-22T07:36:23.184Z,5.00
2022-08-22T07:39:15.016Z,4.63
2022-08-22T07:41:58.792Z,4.90
2022-08-22T07:47:05.652Z,5.23
2022-08-22T07:49:39.673Z,4.60
2022-08-22T07:52:20.743Z,4.77
2022-08-22T07:54:57.623Z,4.83
2022-08-22T07:57:31.739Z,4.43
2022-08-22T08:00:10.475Z,4.63
2022-08-22T08:02:46.625Z,5.03
2022-08-22T08:05:17.061Z,4.57
2022-08-22T08:07:47.366Z,4.83
2022-08-22T08:10:23.511Z,4.70
2022-08-22T08:13:02.720Z,4.40
2022-08-22T08:15:35.045Z,4.83
2022-08-22T08:18:08.877Z,4.27
2022-08-22T08:20:39.067Z,4.33
2022-08-22T08:23:11.406Z,4.33
2022-08-22T08:25:55.673Z,4.57
2022-08-22T08:28:34.014Z,5.20
2022-08-22T08:31:09.387Z,4.53
2022-08-22T08:33:41.808Z,4.57
2022-08-22T08:36:24.689Z,3.57
2022-08-22T08:39:02.649Z,4.17
2022-08-22T08:42:05.401Z,4.37
2022-08-22T08:45:04.272Z,4.00
2022-08-22T08:47:43.212Z,3.63
2022-08-22T08:50:33.768Z,4.23
2022-08-22T08:53:34.949Z,4.10
2022-08-22T08:56:19.456Z,3.57
2022-08-22T08:59:00.123Z,4.33
2022-08-22T09:01:50.250Z,3.87
2022-08-22T09:04:50.596Z,3.60
2022-08-22T09:07:56.867Z,3.57
2022-08-22T09:11:01.274Z,3.97
2022-08-22T09:13:50.243Z,4.10
2022-08-22T09:16:37.442Z,3.70
2022-08-22T09:19:37.480Z,4.00
2022-08-22T09:22:49.866Z,3.83
2022-08-22T09:25:27.195Z,3.77
2022-08-22T09:28:16.930Z,4.20
2022-08-22T09:31:32.804Z,4.07
2022-08-22T09:34:13.532Z,3.70
2022-08-22T09:37:14.139Z,3.60
2022-08-22T09:39:57.568Z,3.90
2022-08-22T09:42:39.670Z,4.28
2022-08-22T09:45:38.857Z,4.07
2022-08-22T09:50:54.690Z,4.00
2022-08-22T09:53:44.880Z,4.30
2022-08-22T09:56:20.343Z,4.50
2022-08-22T09:59:00.286Z,3.87
2022-08-22T10:01:33.903Z,4.00
2022-08-22T10:04:40.325Z,4.47
2022-08-22T10:07:35.469Z,4.20
2022-08-22T10:10:22.348Z,3.83
2022-08-22T10:13:00.237Z,4.37
2022-08-22T10:15:37.639Z,4.70
2022-08-22T10:18:23.666Z,3.80
2022-08-22T10:21:09.238Z,4.13
2022-08-22T10:23:45.919Z,4.33
2022-08-22T10:26:29.244Z,4.03
2022-08-22T10:29:08.140Z,4.20
2022-08-22T10:31:58.392Z,3.93
2022-08-22T10:34:35.548Z,3.87
2022-08-22T10:37:23.602Z,4.53
2022-08-22T10:40:00.322Z,4.00
2022-08-22T10:42:37.487Z,4.27
2022-08-22T10:45:36.882Z,4.13
2022-08-22T10:48:28.803Z,3.80
2022-08-22T10:51:08.620Z,3.90
2022-08-22T10:53:55.913Z,4.50
2022-08-22T10:56:31.694Z,3.50
2022-08-22T10:59:08.773Z,4.63
2022-08-22T11:01:47.655Z,4.23
2022-08-22T11:04:32.407Z,4.23
2022-08-22T11:07:16.554Z,4.30
2022-08-22T11:09:51.731Z,4.07
2022-08-22T11:12:34.536Z,3.80
2022-08-22T11:15:13.766Z,3.77
2022-08-22T11:18:14.893Z,3.97
2022-08-22T11:20:55.827Z,3.70
2022-08-22T11:23:37.647Z,3.80
2022-08-22T11:26:30.059Z,4.17
2022-08-22T11:29:24.403Z,3.87
2022-08-22T11:32:06.484Z,3.70
2022-08-22T11:34:50.720Z,3.60
2022-08-22T11:37:43.423Z,4.15
2022-08-22T11:40:36.613Z,3.72
2022-08-22T11:43:26.640Z,3.53
2022-08-22T11:46:00.606Z,3.93
2022-08-22T11:48:41.278Z,4.00
2022-08-22T11:51:26.350Z,3.97
2022-08-22T11:54:06.737Z,3.70
2022-08-22T11:56:43.488Z,3.77
2022-08-22T11:59:22.832Z,3.53
2022-08-22T12:01:59.307Z,3.53
2022-08-22T12:04:33.649Z,4.13
2022-08-22T12:07:13.776Z,3.57
2022-08-22T12:09:51.654Z,3.63
2022-08-22T12:12:37.006Z,3.83
2022-08-22T12:15:17.620Z,4.33
2022-08-22T12:18:22.033Z,4.30
2022-08-22T12:21:22.325Z,4.30
2022-08-22T12:24:27.532Z,3.87
2022-08-22T12:27:28.937Z,3.47
2022-08-22T12:30:13.726Z,4.07
2022-08-22T12:33:15.500Z,3.90
2022-08-22T12:36:18.479Z,4.15
2022-08-22T12:39:05.018Z,4.40
2022-08-22T12:42:05.864Z,4.33
2022-08-22T12:44:50.749Z,4.40
2022-08-22T12:47:34.301Z,4.23
2022-08-22T12:50:17.140Z,4.43
2022-08-22T12:53:06.383Z,4.03
2022-08-22T12:56:12.699Z,4.50
2022-08-22T12:59:10.920Z,4.17
2022-08-22T13:01:45.284Z,4.53
2022-08-22T13:04:32.821Z,4.27
2022-08-22T13:07:09.644Z,3.97
2022-08-22T13:09:40.635Z,4.37
2022-08-22T13:12:24.676Z,4.27
2022-08-22T13:14:57.368Z,3.80
2022-08-22T13:17:27.919Z,4.20
2022-08-22T13:20:11.881Z,4.27
2022-08-22T13:22:45.489Z,3.70
2022-08-22T13:25:26.336Z,4.37
2022-08-22T13:27:59.256Z,4.30
2022-08-22T13:30:37.585Z,4.00
2022-08-22T13:33:11.019Z,4.20
2022-08-22T13:38:25.893Z,3.50
2022-08-22T13:40:57.922Z,4.40
2022-08-22T13:43:29.630Z,3.77
2022-08-22T13:46:01.727Z,3.97
2022-08-22T13:48:46.953Z,3.45
2022-08-22T13:51:25.122Z,4.03
2022-08-22T13:54:02.406Z,3.50
2022-08-22T13:56:39.572Z,3.53
2022-08-22T13:59:49.074Z,4.07
2022-08-22T14:02:25.175Z,3.90
2022-08-22T14:05:06.315Z,3.70
2022-08-22T14:11:02.163Z,4.63
2022-08-22T14:13:42.865Z,4.53
2022-08-22T14:16:19.641Z,3.90
2022-08-22T14:18:54.313Z,4.13
2022-08-22T14:21:40.848Z,4.10
2022-08-22T14:24:18.865Z,3.87
2022-08-22T14:26:54.791Z,4.07
2022-08-22T14:29:31.722Z,4.03
2022-08-22T14:32:05.960Z,4.27
2022-08-22T14:34:40.938Z,4.30
2022-08-22T14:37:21.046Z,3.73
2022-08-22T14:39:56.408Z,4.00
2022-08-22T14:42:30.822Z,3.80
2022-08-22T14:45:07.853Z,4.43
2022-08-22T14:47:55.275Z,3.67
2022-08-22T14:50:39.987Z,4.00
2022-08-22T14:53:22.279Z,4.17
2022-08-22T14:56:01.533Z,3.67
2022-08-22T14:58:36.186Z,3.83
2022-08-22T15:01:11.707Z,4.10
2022-08-22T15:03:42.657Z,4.00
2022-08-22T15:06:29.234Z,5.03
2022-08-22T15:09:00.566Z,4.23
2022-08-22T15:11:37.818Z,4.30
2022-08-22T15:14:24.225Z,3.97
2022-08-22T15:16:55.540Z,3.97
2022-08-22T15:19:28.099Z,4.53
2022-08-22T15:22:13.483Z,4.97
2022-08-22T15:24:46.840Z,4.87
2022-08-22T15:27:20.115Z,4.95
2022-08-22T15:32:23.755Z,4.70
2022-08-22T15:35:06.242Z,4.70
2022-08-22T15:37:52.865Z,4.30
2022-08-22T15:40:33.530Z,4.20
2022-08-22T15:43:18.517Z,4.83
2022-08-22T15:45:51.356Z,4.67
2022-08-22T15:48:35.765Z,4.30
2022-08-22T15:51:09.897Z,4.97
2022-08-22T15:54:01.357Z,4.50
2022-08-22T15:56:35.272Z,4.33
2022-08-22T15:59:48.136Z,4.60
2022-08-22T16:02:30.588Z,3.97
2022-08-22T16:05:23.422Z,3.90
2022-08-22T16:08:02.987Z,4.73
2022-08-22T16:10:37.272Z,4.70
2022-08-22T16:13:14.904Z,5.17
2022-08-22T16:15:57.724Z,4.07
2022-08-22T16:19:02.551Z,4.60
2022-08-22T16:22:10.869Z,4.47
2022-08-22T16:25:02.757Z,4.77
2022-08-22T16:27:31.964Z,4.43
2022-08-22T16:30:11.668Z,5.53
2022-08-22T16:32:50.371Z,4.27
2022-08-22T16:35:50.984Z,4.67
2022-08-22T16:38:26.288Z,4.17
2022-08-22T16:40:55.343Z,5.23
2022-08-22T16:43:28.794Z,4.60
2022-08-22T16:45:59.105Z,5.10
2022-08-22T16:48:35.224Z,4.90
2022-08-22T16:51:13.909Z,4.33
2022-08-22T16:54:11.213Z,5.37
2022-08-22T16:57:01.602Z,4.23
2022-08-22T17:00:06.706Z,4.50
2022-08-22T17:02:59.091Z,4.50
2022-08-22T17:05:47.195Z,4.40
2022-08-22T17:08:32.169Z,4.07
2022-08-22T17:11:11.697Z,4.60
2022-08-22T17:14:12.372Z,5.17
2022-08-22T17:16:58.143Z,4.33
2022-08-22T17:19:42.924Z,4.80
2022-08-22T17:22:19.963Z,5.03
2022-08-22T17:25:03.430Z,4.80
2022-08-22T17:27:39.120Z,4.30
2022-08-22T17:30:11.772Z,5.10
2022-08-22T17:33:06.062Z,4.87
2022-08-22T17:35:55.722Z,4.60
2022-08-22T17:38:38.368Z,4.43
2022-08-22T17:41:20.249Z,4.73
2022-08-22T17:43:57.666Z,4.67
2022-08-22T17:46:37.090Z,5.10
2022-08-22T17:49:20.156Z,4.90
2022-08-22T17:51:54.797Z,5.03
2022-08-22T17:54:32.023Z,4.83
2022-08-22T17:57:05.882Z,4.73
2022-08-22T17:59:45.607Z,4.97
2022-08-22T18:02:20.811Z,4.77
2022-08-22T18:05:02.878Z,4.73
2022-08-22T18:07:40.357Z,5.00
2022-08-22T18:10:19.029Z,4.87
2022-08-22T18:13:06.317Z,4.63
2022-08-22T18:15:47.016Z,5.30
2022-08-22T18:18:29.951Z,5.00
2022-08-22T18:21:03.192Z,5.15
2022-08-22T18:23:40.562Z,5.30
2022-08-22T18:26:27.249Z,5.37
2022-08-22T18:28:59.705Z,5.27
2022-08-22T18:31:38.618Z,5.07
2022-08-22T18:34:18.793Z,5.93
2022-08-22T18:36:55.724Z,5.50
2022-08-22T18:39:29.602Z,5.03
2022-08-22T18:42:04.720Z,5.70
2022-08-22T18:44:39.250Z,5.63
2022-08-22T18:47:17.708Z,6.33
2022-08-22T18:49:54.100Z,5.83
2022-08-22T18:52:34.746Z,6.00
2022-08-22T18:55:23.146Z,5.80
2022-08-22T18:58:12.819Z,5.50
2022-08-22T19:00:57.061Z,4.93
2022-08-22T19:03:39.671Z,6.63
2022-08-22T19:06:31.926Z,5.80
2022-08-22T19:09:24.185Z,6.07
2022-08-22T19:12:03.023Z,6.07
2022-08-22T19:14:51.082Z,6.07
2022-08-22T19:17:59.205Z,6.07
2022-08-22T19:20:48.368Z,5.37
2022-08-22T19:23:50.769Z,6.27
2022-08-22T19:26:42.686Z,6.43
2022-08-22T19:29:47.660Z,5.87
2022-08-22T19:32:49.040Z,5.40
2022-08-22T19:35:23.188Z,5.70
2022-08-22T19:37:53.841Z,5.53
2022-08-22T19:40:53.961Z,5.37
2022-08-22T19:43:31.754Z,5.63
2022-08-22T19:46:03.709Z,5.83
2022-08-22T19:48:44.056Z,5.40
2022-08-22T19:51:25.129Z,6.03
2022-08-22T19:54:16.258Z,6.17
2022-08-22T19:57:04.194Z,5.97
2022-08-22T19:59:50.818Z,6.10
2022-08-22T20:02:35.085Z,6.30
2022-08-22T20:05:12.346Z,6.27
2022-08-22T20:08:02.418Z,5.73
2022-08-22T20:10:49.027Z,6.07
2022-08-22T20:13:22.392Z,6.27
2022-08-22T20:16:15.953Z,6.12
2022-08-22T20:19:19.404Z,6.08
2022-08-22T20:21:57.598Z,5.73
2022-08-22T20:24:41.062Z,6.27
2022-08-22T20:27:15.468Z,6.17
2022-08-22T20:29:49.984Z,6.43
2022-08-22T20:32:22.506Z,6.63
2022-08-22T20:34:58.558Z,6.80
2022-08-22T20:38:05.889Z,6.57
2022-08-22T20:40:55.179Z,6.73
2022-08-22T20:43:25.611Z,6.37
2022-08-22T20:46:07.198Z,6.33
2022-08-22T20:48:44.824Z,6.77
2022-08-22T20:51:19.118Z,7.00
2022-08-22T20:53:53.618Z,6.37
2022-08-22T20:56:37.309Z,6.23
2022-08-22T20:59:29.501Z,6.58
2022-08-22T21:02:12.160Z,6.60
2022-08-22T21:04:48.252Z,7.63
2022-08-22T21:07:23.173Z,6.50
2022-08-22T21:10:21.601Z,6.83
2022-08-22T21:13:10.269Z,6.53
2022-08-22T21:15:42.977Z,6.67
2022-08-22T21:18:13.644Z,7.37
2022-08-22T21:20:42.154Z,7.27
2022-08-22T21:23:15.384Z,7.07
2022-08-22T21:25:58.543Z,6.78
2022-08-22T21:28:31.512Z,7.77
2022-08-22T21:31:10.016Z,7.33
2022-08-22T21:33:41.932Z,6.70
2022-08-22T21:36:13.400Z,7.30
2022-08-22T21:38:48.668Z,7.47
2022-08-22T21:41:26.769Z,6.93
2022-08-22T21:43:55.578Z,6.63
2022-08-22T21:46:28.773Z,7.07
2022-08-22T21:49:02.869Z,6.70
2022-08-22T21:51:41.317Z,7.37
2022-08-22T21:54:40.224Z,7.50
2022-08-22T21:57:21.454Z,7.77
2022-08-22T21:59:58.623Z,7.50
2022-08-22T22:02:39.784Z,6.87
2022-08-22T22:05:11.674Z,6.70
2022-08-22T22:07:43.720Z,7.10
2022-08-22T22:10:15.652Z,7.47
2022-08-22T22:12:46.750Z,7.50
2022-08-22T22:15:19.334Z,7.40
2022-08-22T22:17:50.281Z,7.07
2022-08-22T22:20:21.666Z,7.23
2022-08-22T22:22:50.323Z,7.37
2022-08-22T22:25:41.324Z,7.97
2022-08-22T22:28:13.695Z,7.67
2022-08-22T22:30:43.270Z,7.83
2022-08-22T22:33:12.149Z,8.07
2022-08-22T22:35:41.151Z,8.63
2022-08-22T22:38:09.941Z,9.15
2022-08-22T22:40:38.721Z,8.70
2022-08-22T22:43:07.203Z,8.07
2022-08-22T22:45:35.992Z,8.43
2022-08-22T22:48:05.717Z,8.47
2022-08-22T22:50:39.956Z,7.90
2022-08-22T22:53:09.709Z,9.10
2022-08-22T22:55:41.513Z,8.40
2022-08-22T22:58:10.518Z,7.83
2022-08-22T23:00:39.025Z,7.83
2022-08-22T23:03:08.067Z,7.60
2022-08-22T23:05:36.555Z,7.90
2022-08-22T23:08:05.389Z,9.20
2022-08-22T23:10:34.074Z,8.60
2022-08-22T23:13:05.291Z,8.90
2022-08-22T23:15:33.960Z,9.03
2022-08-22T23:18:02.457Z,7.93
2022-08-22T23:20:31.353Z,7.87
2022-08-22T23:22:59.963Z,8.50
2022-08-22T23:25:28.637Z,8.43
2022-08-22T23:27:57.290Z,7.97
2022-08-22T23:30:26.105Z,8.50
2022-08-22T23:32:55.536Z,7.90
2022-08-22T23:35:24.078Z,8.73
2022-08-22T23:37:52.702Z,8.20
2022-08-22T23:40:21.229Z,8.43
2022-08-22T23:42:49.963Z,8.97
2022-08-22T23:45:18.669Z,9.07
2022-08-22T23:47:48.571Z,8.43
2022-08-22T23:50:17.352Z,7.97
2022-08-22T23:52:46.303Z,9.13
2022-08-22T23:55:14.867Z,8.90
2022-08-22T23:57:43.371Z,8.20
